Latest Weather Observations for Little Bay

IDN60801

Issued at 5:05 am EST Wednesday 3 September 2014 (issued every 30 minutes, with the page automatically refreshed every 10 minutes)

About weather observations | Map of weather stations | Latest weather observations for NSW | Other Formats
Station Details ID: 066051 Name: LITTLE BAY (THE COAST GOLF CLUB) Lat: -33.98 Lon: 151.25 Height: 22.0 m
Data from the previous 72 hours. | See also: Recent months for locations in New South Wales
Date/Time
EST
Temp
°C
App
Temp
°C
Dew
Point
Rel
Hum
%
Delta-T
°C
Wind Press
QNH
hPa
Press
MSL
hPa
Rain
since 9 am
mm
Dir
 
Spd
km/h
Gust
km/h
Spd
kts
Gust
kts
03/05:00am - - - - - SSW 41 63 22 34 - - -
03/04:33am - - - - - SW 35 54 19 29 - - -
03/04:30am - - - - - SW 35 54 19 29 - - -
03/04:01am - - - - - SSW 46 65 25 35 - - -
03/04:00am - - - - - SSW 48 67 26 36 - - -
03/03:30am - - - - - SSW 50 72 27 39 - - -
03/03:20am - - - - - SSW 44 93 24 50 - - -
03/03:00am - - - - - SSW 50 72 27 39 - - -
03/02:30am - - - - - SSW 46 76 25 41 - - -
03/02:22am - - - - - SSW 37 76 20 41 - - -
03/02:00am - - - - - SW 32 52 17 28 - - -
03/01:30am - - - - - SW 32 50 17 27 - - -
03/01:11am - - - - - SW 28 52 15 28 - - -
03/01:00am - - - - - SW 22 33 12 18 - - -
03/12:30am - - - - - SW 28 48 15 26 - - -
03/12:20am - - - - - SW 28 50 15 27 - - -
03/12:00am - - - - - SW 24 35 13 19 - - -
 
Date/Time
EST
Temp
°C
App
Temp
°C
Dew
Point
Rel
Hum
%
Delta-T
°C
Wind Press
QNH
hPa
Press
MSL
hPa
Rain
since 9 am
mm
Dir
 
Spd
km/h
Gust
km/h
Spd
kts
Gust
kts
02/11:30pm - - - - - WSW 26 41 14 22 - - -
02/11:00pm - - - - - WSW 20 35 11 19 - - -
02/10:30pm - - - - - WSW 26 41 14 22 - - -
02/10:00pm - - - - - WSW 24 41 13 22 - - -
02/09:30pm - - - - - SW 28 41 15 22 - - -
02/09:00pm - - - - - SW 30 46 16 25 - - -
02/08:51pm - - - - - SW 28 46 15 25 - - -
02/08:30pm - - - - - SW 24 39 13 21 - - -
02/08:00pm - - - - - SW 20 35 11 19 - - -
02/07:30pm - - - - - SW 22 35 12 19 - - -
02/07:00pm - - - - - SSW 26 43 14 23 - - -
02/06:30pm - - - - - SW 24 37 13 20 - - -
02/06:00pm - - - - - SW 22 37 12 20 - - -
02/05:30pm - - - - - SW 20 32 11 17 - - -
02/05:00pm - - - - - WSW 20 33 11 18 - - -
02/04:30pm - - - - - SW 9 19 5 10 - - -
02/04:00pm - - - - - SW 13 20 7 11 - - -
02/03:30pm - - - - - SSW 19 30 10 16 - - -
02/03:00pm - - - - - SSW 22 32 12 17 - - -
02/02:30pm - - - - - SSW 26 37 14 20 - - -
02/02:00pm - - - - - SSW 30 41 16 22 - - -
02/01:30pm - - - - - SSW 22 33 12 18 - - -
02/01:00pm - - - - - SSW 22 32 12 17 - - -
02/12:30pm - - - - - SSW 13 20 7 11 - - -
02/12:00pm - - - - - SSW 13 19 7 10 - - -
02/11:30am - - - - - S 15 20 8 11 - - -
02/11:00am - - - - - SSW 15 22 8 12 - - -
02/10:30am - - - - - SSW 24 33 13 18 - - -
02/10:00am - - - - - WSW 7 13 4 7 - - -
02/09:30am - - - - - SW 9 15 5 8 - - -
02/09:00am - - - - - WSW 4 6 2 3 - - -
02/08:30am - - - - - W 4 6 2 3 - - -
02/08:00am - - - - - W 11 15 6 8 - - -
02/07:30am - - - - - WNW 7 11 4 6 - - -
02/07:00am - - - - - WNW 9 15 5 8 - - -
02/06:30am - - - - - W 11 20 6 11 - - -
02/06:00am - - - - - W 13 22 7 12 - - -
02/05:30am - - - - - WSW 7 13 4 7 - - -
02/05:00am - - - - - WSW 13 20 7 11 - - -
02/04:30am - - - - - WSW 15 20 8 11 - - -
02/04:00am - - - - - W 13 19 7 10 - - -
02/03:30am - - - - - W 7 13 4 7 - - -
02/03:00am - - - - - W 13 19 7 10 - - -
02/02:30am - - - - - NW 6 9 3 5 - - -
02/02:00am - - - - - NNW 6 9 3 5 - - -
02/01:30am - - - - - N 6 7 3 4 - - -
02/01:00am - - - - - N 6 7 3 4 - - -
02/12:30am - - - - - N 4 6 2 3 - - -
02/12:00am - - - - - N 6 7 3 4 - - -
 
Date/Time
EST
Temp
°C
App
Temp
°C
Dew
Point
Rel
Hum
%
Delta-T
°C
Wind Press
QNH
hPa
Press
MSL
hPa
Rain
since 9 am
mm
Dir
 
Spd
km/h
Gust
km/h
Spd
kts
Gust
kts
01/11:30pm - - - - - NNW 7 9 4 5 - - -
01/11:00pm - - - - - N 7 9 4 5 - - -
01/10:30pm - - - - - NNW 7 11 4 6 - - -
01/10:00pm - - - - - NNW 11 15 6 8 - - -
01/09:30pm - - - - - NNW 11 17 6 9 - - -
01/09:00pm - - - - - NNW 9 11 5 6 - - -
01/08:30pm - - - - - N 4 6 2 3 - - -
01/08:00pm - - - - - NNW 7 11 4 6 - - -
01/07:30pm - - - - - NNW 6 7 3 4 - - -
01/07:00pm - - - - - N 11 15 6 8 - - -
01/06:30pm - - - - - N 11 20 6 11 - - -
01/06:00pm - - - - - N 11 17 6 9 - - -
01/05:30pm - - - - - NNE 17 22 9 12 - - -
01/05:00pm - - - - - N 13 19 7 10 - - -
01/04:30pm - - - - - NNE 19 24 10 13 - - -
01/04:00pm - - - - - NNE 15 22 8 12 - - -
01/03:30pm - - - - - NNE 19 24 10 13 - - -
01/03:00pm - - - - - NE 19 24 10 13 - - -
01/02:30pm - - - - - NNE 19 26 10 14 - - -
01/02:00pm - - - - - NNE 15 20 8 11 - - -
01/01:30pm - - - - - NNE 13 17 7 9 - - -
01/01:00pm - - - - - NE 11 13 6 7 - - -
01/12:30pm - - - - - NE 9 13 5 7 - - -
01/12:00pm - - - - - NNE 13 17 7 9 - - -
01/11:30am - - - - - NE 15 19 8 10 - - -
01/11:00am - - - - - NNE 9 13 5 7 - - -
01/10:30am - - - - - NNW 6 15 3 8 - - -
01/10:00am - - - - - WNW 7 13 4 7 - - -
01/09:30am - - - - - WNW 13 19 7 10 - - -
01/09:00am - - - - - WNW 13 20 7 11 - - -
01/08:30am - - - - - WNW 15 22 8 12 - - -
01/08:00am - - - - - W 15 22 8 12 - - -
01/07:30am - - - - - WNW 13 19 7 10 - - -
01/07:00am - - - - - WNW 9 15 5 8 - - -
01/06:30am - - - - - NW 9 15 5 8 - - -
01/06:00am - - - - - WNW 11 15 6 8 - - -
01/05:30am - - - - - NW 11 17 6 9 - - -
01/05:00am - - - - - NW 9 13 5 7 - - -
01/04:30am - - - - - WNW 11 15 6 8 - - -
01/04:00am - - - - - WNW 13 17 7 9 - - -
01/03:30am - - - - - WNW 11 15 6 8 - - -
01/03:00am - - - - - WNW 9 17 5 9 - - -
01/02:30am - - - - - WNW 9 13 5 7 - - -
01/02:00am - - - - - WNW 9 11 5 6 - - -
01/01:30am - - - - - WNW 9 11 5 6 - - -
01/01:00am - - - - - WNW 9 11 5 6 - - -
01/12:30am - - - - - WNW 9 11 5 6 - - -
01/12:00am - - - - - WNW 9 11 5 6 - - -
 
Date/Time
EST
Temp
°C
App
Temp
°C
Dew
Point
Rel
Hum
%
Delta-T
°C
Wind Press
QNH
hPa
Press
MSL
hPa
Rain
since 9 am
mm
Dir
 
Spd
km/h
Gust
km/h
Spd
kts
Gust
kts
31/11:30pm - - - - - WNW 7 11 4 6 - - -
31/11:00pm - - - - - W 9 11 5 6 - - -
31/10:30pm - - - - - W 9 13 5 7 - - -
31/10:00pm - - - - - CALM 0 0 0 0 - - -
31/09:30pm - - - - - CALM 0 0 0 0 - - -
31/09:00pm - - - - - CALM 0 0 0 0 - - -
31/08:30pm - - - - - CALM 0 0 0 0 - - -
31/08:00pm - - - - - ENE 6 7 3 4 - - -
31/07:30pm - - - - - ENE 7 9 4 5 - - -
31/07:00pm - - - - - E 9 11 5 6 - - -
31/06:30pm - - - - - E 9 11 5 6 - - -
31/06:00pm - - - - - E 9 13 5 7 - - -
31/05:30pm - - - - - ESE 9 13 5 7 - - -
31/05:00pm - - - - - ESE 11 13 6 7 - - -
31/04:30pm - - - - - SE 11 13 6 7 - - -
31/04:00pm - - - - - SE 11 15 6 8 - - -
31/03:30pm - - - - - SE 11 13 6 7 - - -
31/03:00pm - - - - - SE 11 15 6 8 - - -
31/02:30pm - - - - - SE 13 15 7 8 - - -
31/02:00pm - - - - - SSE 13 15 7 8 - - -
31/01:30pm - - - - - SE 13 15 7 8 - - -
31/01:00pm - - - - - SSE 13 15 7 8 - - -
31/12:30pm - - - - - SSE 13 17 7 9 - - -
31/12:00pm - - - - - S 17 20 9 11 - - -
31/11:30am - - - - - S 15 19 8 10 - - -
31/11:00am - - - - - S 15 19 8 10 - - -
31/10:30am - - - - - S 13 19 7 10 - - -
31/10:00am - - - - - W 9 15 5 8 - - -
31/09:30am - - - - - W 11 15 6 8 - - -
31/09:00am - - - - - W 11 15 6 8 - - -
31/08:30am - - - - - W 11 17 6 9 - - -
31/08:00am - - - - - W 11 17 6 9 - - -
31/07:30am - - - - - WSW 11 15 6 8 - - -
31/07:00am - - - - - W 13 17 7 9 - - -
31/06:30am - - - - - W 11 15 6 8 - - -
31/06:00am - - - - - W 13 17 7 9 - - -
31/05:30am - - - - - W 13 20 7 11 - - -

Other Formats:

Comma delimited format used in spreadsheet applications
http://www.bom.gov.au/fwo/IDN60801/IDN60801.94780.axf

JavaScript Object Notation format (JSON) in row-major order
http://www.bom.gov.au/fwo/IDN60801/IDN60801.94780.json